sensor_id;sensor_type;location;lat;lon;timestamp;P1;durP1;ratioP1;P2;durP2;ratioP2
16514;SDS011;8370;52.556;7.970;2022-09-13T00:00:37;9.83;;;5.77;;
16514;SDS011;8370;52.556;7.970;2022-09-13T00:03:05;8.97;;;6.57;;
16514;SDS011;8370;52.556;7.970;2022-09-13T00:05:31;9.27;;;6.50;;
16514;SDS011;8370;52.556;7.970;2022-09-13T00:07:57;11.33;;;6.73;;
16514;SDS011;8370;52.556;7.970;2022-09-13T00:10:22;7.50;;;5.40;;
16514;SDS011;8370;52.556;7.970;2022-09-13T00:12:48;9.30;;;5.93;;
16514;SDS011;8370;52.556;7.970;2022-09-13T00:15:14;8.27;;;6.03;;
16514;SDS011;8370;52.556;7.970;2022-09-13T00:17:40;8.70;;;6.73;;
16514;SDS011;8370;52.556;7.970;2022-09-13T00:20:06;10.00;;;6.80;;
16514;SDS011;8370;52.556;7.970;2022-09-13T00:22:32;8.83;;;6.50;;
16514;SDS011;8370;52.556;7.970;2022-09-13T00:24:58;10.40;;;6.50;;
16514;SDS011;8370;52.556;7.970;2022-09-13T00:27:24;9.10;;;5.97;;
16514;SDS011;8370;52.556;7.970;2022-09-13T00:29:49;9.23;;;6.23;;
16514;SDS011;8370;52.556;7.970;2022-09-13T00:32:15;9.73;;;6.77;;
16514;SDS011;8370;52.556;7.970;2022-09-13T00:34:41;9.07;;;6.53;;
16514;SDS011;8370;52.556;7.970;2022-09-13T00:37:06;11.63;;;7.23;;
16514;SDS011;8370;52.556;7.970;2022-09-13T00:39:32;9.23;;;6.43;;
16514;SDS011;8370;52.556;7.970;2022-09-13T00:41:58;9.70;;;5.90;;
16514;SDS011;8370;52.556;7.970;2022-09-13T00:47:14;9.87;;;6.20;;
16514;SDS011;8370;52.556;7.970;2022-09-13T00:49:47;9.27;;;6.53;;
16514;SDS011;8370;52.556;7.970;2022-09-13T00:52:17;7.67;;;6.17;;
16514;SDS011;8370;52.556;7.970;2022-09-13T00:54:53;8.53;;;6.30;;
16514;SDS011;8370;52.556;7.970;2022-09-13T00:57:24;8.77;;;6.83;;
16514;SDS011;8370;52.556;7.970;2022-09-13T00:59:56;7.80;;;5.83;;
16514;SDS011;8370;52.556;7.970;2022-09-13T01:02:32;9.47;;;6.93;;
16514;SDS011;8370;52.556;7.970;2022-09-13T01:04:58;10.03;;;6.87;;
16514;SDS011;8370;52.556;7.970;2022-09-13T01:07:23;10.83;;;7.60;;
16514;SDS011;8370;52.556;7.970;2022-09-13T01:09:49;11.17;;;7.10;;
16514;SDS011;8370;52.556;7.970;2022-09-13T01:12:20;8.93;;;6.73;;
16514;SDS011;8370;52.556;7.970;2022-09-13T01:14:56;9.73;;;7.03;;
16514;SDS011;8370;52.556;7.970;2022-09-13T01:17:23;8.67;;;6.40;;
16514;SDS011;8370;52.556;7.970;2022-09-13T01:19:51;10.17;;;7.07;;
16514;SDS011;8370;52.556;7.970;2022-09-13T01:30:36;13.17;;;7.83;;
16514;SDS011;8370;52.556;7.970;2022-09-13T01:35:46;11.20;;;7.93;;
16514;SDS011;8370;52.556;7.970;2022-09-13T01:38:25;12.50;;;7.90;;
16514;SDS011;8370;52.556;7.970;2022-09-13T01:41:23;17.80;;;8.83;;
16514;SDS011;8370;52.556;7.970;2022-09-13T01:47:11;11.73;;;8.37;;
16514;SDS011;8370;52.556;7.970;2022-09-13T01:50:02;11.93;;;9.10;;
16514;SDS011;8370;52.556;7.970;2022-09-13T01:52:41;14.57;;;10.03;;
16514;SDS011;8370;52.556;7.970;2022-09-13T01:55:22;13.50;;;10.53;;
16514;SDS011;8370;52.556;7.970;2022-09-13T01:57:54;14.03;;;10.30;;
16514;SDS011;8370;52.556;7.970;2022-09-13T02:00:27;13.30;;;9.70;;
16514;SDS011;8370;52.556;7.970;2022-09-13T02:03:05;15.37;;;10.47;;
16514;SDS011;8370;52.556;7.970;2022-09-13T02:05:40;17.30;;;10.67;;
16514;SDS011;8370;52.556;7.970;2022-09-13T02:08:15;15.17;;;11.40;;
16514;SDS011;8370;52.556;7.970;2022-09-13T02:10:46;17.10;;;12.13;;
16514;SDS011;8370;52.556;7.970;2022-09-13T02:14:11;16.17;;;10.73;;
16514;SDS011;8370;52.556;7.970;2022-09-13T02:16:43;15.63;;;11.00;;
16514;SDS011;8370;52.556;7.970;2022-09-13T02:19:20;19.03;;;12.33;;
16514;SDS011;8370;52.556;7.970;2022-09-13T02:21:51;17.70;;;12.03;;
16514;SDS011;8370;52.556;7.970;2022-09-13T02:24:22;16.90;;;12.67;;
16514;SDS011;8370;52.556;7.970;2022-09-13T02:27:02;18.93;;;11.70;;
16514;SDS011;8370;52.556;7.970;2022-09-13T02:29:32;19.27;;;13.43;;
16514;SDS011;8370;52.556;7.970;2022-09-13T02:32:21;17.57;;;12.67;;
16514;SDS011;8370;52.556;7.970;2022-09-13T02:34:54;22.03;;;13.83;;
16514;SDS011;8370;52.556;7.970;2022-09-13T02:37:31;19.90;;;13.23;;
16514;SDS011;8370;52.556;7.970;2022-09-13T02:40:07;21.73;;;13.50;;
16514;SDS011;8370;52.556;7.970;2022-09-13T02:42:43;16.37;;;11.53;;
16514;SDS011;8370;52.556;7.970;2022-09-13T02:45:26;17.40;;;12.70;;
16514;SDS011;8370;52.556;7.970;2022-09-13T02:48:03;20.47;;;13.90;;
16514;SDS011;8370;52.556;7.970;2022-09-13T02:53:28;20.63;;;13.80;;
16514;SDS011;8370;52.556;7.970;2022-09-13T02:56:28;22.77;;;15.17;;
16514;SDS011;8370;52.556;7.970;2022-09-13T02:59:14;20.60;;;14.70;;
16514;SDS011;8370;52.556;7.970;2022-09-13T03:01:43;19.77;;;14.07;;
16514;SDS011;8370;52.556;7.970;2022-09-13T03:04:14;24.67;;;15.03;;
16514;SDS011;8370;52.556;7.970;2022-09-13T03:06:40;21.73;;;14.30;;
16514;SDS011;8370;52.556;7.970;2022-09-13T03:09:06;19.80;;;13.90;;
16514;SDS011;8370;52.556;7.970;2022-09-13T03:17:49;23.27;;;15.07;;
16514;SDS011;8370;52.556;7.970;2022-09-13T03:26:07;24.67;;;15.67;;
16514;SDS011;8370;52.556;7.970;2022-09-13T03:28:54;25.00;;;15.37;;
16514;SDS011;8370;52.556;7.970;2022-09-13T03:31:34;25.50;;;16.10;;
16514;SDS011;8370;52.556;7.970;2022-09-13T03:34:27;22.47;;;14.80;;
16514;SDS011;8370;52.556;7.970;2022-09-13T03:37:04;23.87;;;14.87;;
16514;SDS011;8370;52.556;7.970;2022-09-13T03:39:47;24.37;;;15.17;;
16514;SDS011;8370;52.556;7.970;2022-09-13T03:42:27;24.40;;;15.57;;
16514;SDS011;8370;52.556;7.970;2022-09-13T03:45:00;20.00;;;14.60;;
16514;SDS011;8370;52.556;7.970;2022-09-13T03:47:28;24.67;;;14.73;;
16514;SDS011;8370;52.556;7.970;2022-09-13T03:49:57;24.80;;;15.27;;
16514;SDS011;8370;52.556;7.970;2022-09-13T03:52:24;18.00;;;13.40;;
16514;SDS011;8370;52.556;7.970;2022-09-13T03:54:50;20.50;;;14.70;;
16514;SDS011;8370;52.556;7.970;2022-09-13T03:57:18;25.43;;;15.57;;
16514;SDS011;8370;52.556;7.970;2022-09-13T03:59:49;23.00;;;14.73;;
16514;SDS011;8370;52.556;7.970;2022-09-13T04:02:17;24.33;;;16.27;;
16514;SDS011;8370;52.556;7.970;2022-09-13T04:04:44;21.13;;;14.67;;
16514;SDS011;8370;52.556;7.970;2022-09-13T04:07:11;23.30;;;15.77;;
16514;SDS011;8370;52.556;7.970;2022-09-13T04:09:38;22.07;;;15.33;;
16514;SDS011;8370;52.556;7.970;2022-09-13T04:12:04;22.67;;;15.50;;
16514;SDS011;8370;52.556;7.970;2022-09-13T04:14:30;28.63;;;15.43;;
16514;SDS011;8370;52.556;7.970;2022-09-13T04:16:56;24.50;;;16.43;;
16514;SDS011;8370;52.556;7.970;2022-09-13T04:19:23;23.23;;;16.80;;
16514;SDS011;8370;52.556;7.970;2022-09-13T04:21:49;22.93;;;15.47;;
16514;SDS011;8370;52.556;7.970;2022-09-13T04:24:17;25.03;;;16.23;;
16514;SDS011;8370;52.556;7.970;2022-09-13T04:26:52;24.47;;;15.03;;
16514;SDS011;8370;52.556;7.970;2022-09-13T04:29:19;26.40;;;16.00;;
16514;SDS011;8370;52.556;7.970;2022-09-13T04:31:47;23.90;;;16.43;;
16514;SDS011;8370;52.556;7.970;2022-09-13T04:34:14;27.33;;;16.90;;
16514;SDS011;8370;52.556;7.970;2022-09-13T04:36:40;26.57;;;16.70;;
16514;SDS011;8370;52.556;7.970;2022-09-13T04:39:05;23.77;;;15.30;;
16514;SDS011;8370;52.556;7.970;2022-09-13T04:41:31;26.23;;;16.67;;
16514;SDS011;8370;52.556;7.970;2022-09-13T04:43:59;28.77;;;17.57;;
16514;SDS011;8370;52.556;7.970;2022-09-13T04:46:25;24.93;;;14.73;;
16514;SDS011;8370;52.556;7.970;2022-09-13T04:48:51;27.23;;;17.43;;
16514;SDS011;8370;52.556;7.970;2022-09-13T04:51:17;25.20;;;17.67;;
16514;SDS011;8370;52.556;7.970;2022-09-13T04:53:44;25.10;;;17.27;;
16514;SDS011;8370;52.556;7.970;2022-09-13T04:56:10;26.20;;;16.70;;
16514;SDS011;8370;52.556;7.970;2022-09-13T04:58:38;28.13;;;17.50;;
16514;SDS011;8370;52.556;7.970;2022-09-13T05:01:04;23.43;;;15.43;;
16514;SDS011;8370;52.556;7.970;2022-09-13T05:03:31;26.10;;;15.83;;
16514;SDS011;8370;52.556;7.970;2022-09-13T05:06:01;23.43;;;16.73;;
16514;SDS011;8370;52.556;7.970;2022-09-13T05:08:28;26.77;;;17.83;;
16514;SDS011;8370;52.556;7.970;2022-09-13T05:10:54;21.83;;;14.90;;
16514;SDS011;8370;52.556;7.970;2022-09-13T05:13:20;26.17;;;17.50;;
16514;SDS011;8370;52.556;7.970;2022-09-13T05:15:45;25.90;;;17.13;;
16514;SDS011;8370;52.556;7.970;2022-09-13T05:18:11;27.63;;;17.03;;
16514;SDS011;8370;52.556;7.970;2022-09-13T05:20:37;29.80;;;18.60;;
16514;SDS011;8370;52.556;7.970;2022-09-13T05:23:02;24.90;;;15.87;;
16514;SDS011;8370;52.556;7.970;2022-09-13T05:25:28;30.53;;;18.03;;
16514;SDS011;8370;52.556;7.970;2022-09-13T05:27:53;29.47;;;17.90;;
16514;SDS011;8370;52.556;7.970;2022-09-13T05:30:19;26.13;;;17.47;;
16514;SDS011;8370;52.556;7.970;2022-09-13T05:32:44;28.47;;;17.93;;
16514;SDS011;8370;52.556;7.970;2022-09-13T05:35:10;29.43;;;18.70;;
16514;SDS011;8370;52.556;7.970;2022-09-13T05:37:35;30.43;;;18.37;;
16514;SDS011;8370;52.556;7.970;2022-09-13T05:40:01;26.23;;;16.77;;
16514;SDS011;8370;52.556;7.970;2022-09-13T05:42:27;31.83;;;18.63;;
16514;SDS011;8370;52.556;7.970;2022-09-13T05:44:53;32.13;;;19.23;;
16514;SDS011;8370;52.556;7.970;2022-09-13T05:47:18;24.57;;;15.17;;
16514;SDS011;8370;52.556;7.970;2022-09-13T05:49:44;31.07;;;18.80;;
16514;SDS011;8370;52.556;7.970;2022-09-13T05:52:09;32.57;;;17.37;;
16514;SDS011;8370;52.556;7.970;2022-09-13T05:54:35;32.60;;;18.37;;
16514;SDS011;8370;52.556;7.970;2022-09-13T05:57:01;32.03;;;18.60;;
16514;SDS011;8370;52.556;7.970;2022-09-13T05:59:27;29.93;;;19.90;;
16514;SDS011;8370;52.556;7.970;2022-09-13T06:01:53;32.17;;;20.57;;
16514;SDS011;8370;52.556;7.970;2022-09-13T06:04:18;29.00;;;18.77;;
16514;SDS011;8370;52.556;7.970;2022-09-13T06:06:43;27.17;;;17.33;;
16514;SDS011;8370;52.556;7.970;2022-09-13T06:09:09;27.37;;;17.40;;
16514;SDS011;8370;52.556;7.970;2022-09-13T06:11:35;32.03;;;19.13;;
16514;SDS011;8370;52.556;7.970;2022-09-13T06:14:01;28.03;;;18.27;;
16514;SDS011;8370;52.556;7.970;2022-09-13T06:16:27;28.33;;;18.17;;
16514;SDS011;8370;52.556;7.970;2022-09-13T06:18:52;31.47;;;19.03;;
16514;SDS011;8370;52.556;7.970;2022-09-13T06:21:21;29.00;;;19.50;;
16514;SDS011;8370;52.556;7.970;2022-09-13T06:23:47;29.27;;;19.00;;
16514;SDS011;8370;52.556;7.970;2022-09-13T06:26:15;33.80;;;18.33;;
16514;SDS011;8370;52.556;7.970;2022-09-13T06:28:46;29.87;;;19.50;;
16514;SDS011;8370;52.556;7.970;2022-09-13T06:31:13;30.43;;;19.87;;
16514;SDS011;8370;52.556;7.970;2022-09-13T06:33:40;29.93;;;19.60;;
16514;SDS011;8370;52.556;7.970;2022-09-13T06:36:07;29.93;;;17.53;;
16514;SDS011;8370;52.556;7.970;2022-09-13T06:38:35;27.57;;;17.87;;
16514;SDS011;8370;52.556;7.970;2022-09-13T06:41:03;34.50;;;18.47;;
16514;SDS011;8370;52.556;7.970;2022-09-13T06:43:31;27.13;;;18.20;;
16514;SDS011;8370;52.556;7.970;2022-09-13T06:46:01;30.07;;;18.77;;
16514;SDS011;8370;52.556;7.970;2022-09-13T06:48:38;28.30;;;16.47;;
16514;SDS011;8370;52.556;7.970;2022-09-13T06:51:07;28.67;;;18.43;;
16514;SDS011;8370;52.556;7.970;2022-09-13T06:53:37;28.20;;;17.37;;
16514;SDS011;8370;52.556;7.970;2022-09-13T06:56:12;30.67;;;18.00;;
16514;SDS011;8370;52.556;7.970;2022-09-13T06:58:42;25.37;;;17.23;;
16514;SDS011;8370;52.556;7.970;2022-09-13T07:01:10;24.83;;;16.70;;
16514;SDS011;8370;52.556;7.970;2022-09-13T07:03:43;24.90;;;16.83;;
16514;SDS011;8370;52.556;7.970;2022-09-13T07:06:14;25.33;;;16.23;;
16514;SDS011;8370;52.556;7.970;2022-09-13T07:08:42;24.77;;;15.60;;
16514;SDS011;8370;52.556;7.970;2022-09-13T07:11:09;31.77;;;16.23;;
16514;SDS011;8370;52.556;7.970;2022-09-13T07:13:36;27.45;;;15.82;;
16514;SDS011;8370;52.556;7.970;2022-09-13T07:16:09;26.48;;;13.98;;
16514;SDS011;8370;52.556;7.970;2022-09-13T07:18:35;24.85;;;14.02;;
16514;SDS011;8370;52.556;7.970;2022-09-13T07:21:08;26.35;;;14.45;;
16514;SDS011;8370;52.556;7.970;2022-09-13T07:23:36;20.50;;;12.60;;
16514;SDS011;8370;52.556;7.970;2022-09-13T07:26:03;19.37;;;12.70;;
16514;SDS011;8370;52.556;7.970;2022-09-13T07:28:31;24.23;;;13.43;;
16514;SDS011;8370;52.556;7.970;2022-09-13T07:31:04;21.30;;;12.13;;
16514;SDS011;8370;52.556;7.970;2022-09-13T07:33:30;19.03;;;13.13;;
16514;SDS011;8370;52.556;7.970;2022-09-13T07:35:56;20.52;;;13.40;;
16514;SDS011;8370;52.556;7.970;2022-09-13T07:38:23;23.52;;;13.45;;
16514;SDS011;8370;52.556;7.970;2022-09-13T07:40:52;24.13;;;13.57;;
16514;SDS011;8370;52.556;7.970;2022-09-13T07:43:20;24.27;;;14.30;;
16514;SDS011;8370;52.556;7.970;2022-09-13T07:45:45;21.70;;;13.40;;
16514;SDS011;8370;52.556;7.970;2022-09-13T07:48:11;23.30;;;13.23;;
16514;SDS011;8370;52.556;7.970;2022-09-13T07:50:36;29.48;;;14.43;;
16514;SDS011;8370;52.556;7.970;2022-09-13T07:53:02;22.13;;;14.27;;
16514;SDS011;8370;52.556;7.970;2022-09-13T07:55:28;22.38;;;13.23;;
16514;SDS011;8370;52.556;7.970;2022-09-13T07:57:54;23.73;;;13.80;;
16514;SDS011;8370;52.556;7.970;2022-09-13T08:00:19;19.13;;;13.07;;
16514;SDS011;8370;52.556;7.970;2022-09-13T08:02:45;26.83;;;14.07;;
16514;SDS011;8370;52.556;7.970;2022-09-13T08:05:10;28.00;;;15.17;;
16514;SDS011;8370;52.556;7.970;2022-09-13T08:07:36;26.93;;;16.43;;
16514;SDS011;8370;52.556;7.970;2022-09-13T08:10:01;26.08;;;14.00;;
16514;SDS011;8370;52.556;7.970;2022-09-13T08:12:27;22.97;;;13.67;;
16514;SDS011;8370;52.556;7.970;2022-09-13T08:14:52;22.97;;;14.47;;
16514;SDS011;8370;52.556;7.970;2022-09-13T08:17:18;22.88;;;14.60;;
16514;SDS011;8370;52.556;7.970;2022-09-13T08:19:43;23.83;;;14.38;;
16514;SDS011;8370;52.556;7.970;2022-09-13T08:22:09;26.27;;;15.77;;
16514;SDS011;8370;52.556;7.970;2022-09-13T08:24:34;24.92;;;14.27;;
16514;SDS011;8370;52.556;7.970;2022-09-13T08:27:00;24.23;;;15.00;;
16514;SDS011;8370;52.556;7.970;2022-09-13T08:29:25;26.30;;;16.63;;
16514;SDS011;8370;52.556;7.970;2022-09-13T08:31:51;23.13;;;14.98;;
16514;SDS011;8370;52.556;7.970;2022-09-13T08:34:17;23.45;;;15.00;;
16514;SDS011;8370;52.556;7.970;2022-09-13T08:36:44;23.35;;;15.05;;
16514;SDS011;8370;52.556;7.970;2022-09-13T08:39:10;23.90;;;15.23;;
16514;SDS011;8370;52.556;7.970;2022-09-13T08:46:40;18.90;;;11.73;;
16514;SDS011;8370;52.556;7.970;2022-09-13T08:49:14;18.60;;;11.93;;
16514;SDS011;8370;52.556;7.970;2022-09-13T08:51:50;17.58;;;12.35;;
16514;SDS011;8370;52.556;7.970;2022-09-13T08:54:20;19.50;;;11.95;;
16514;SDS011;8370;52.556;7.970;2022-09-13T08:59:42;16.30;;;10.63;;
16514;SDS011;8370;52.556;7.970;2022-09-13T09:02:30;19.17;;;10.13;;
16514;SDS011;8370;52.556;7.970;2022-09-13T09:05:12;15.63;;;9.52;;
16514;SDS011;8370;52.556;7.970;2022-09-13T09:07:45;20.08;;;10.98;;
16514;SDS011;8370;52.556;7.970;2022-09-13T09:12:58;15.05;;;9.32;;
16514;SDS011;8370;52.556;7.970;2022-09-13T09:15:30;15.93;;;10.07;;
16514;SDS011;8370;52.556;7.970;2022-09-13T09:18:05;14.63;;;8.82;;
16514;SDS011;8370;52.556;7.970;2022-09-13T09:20:46;13.73;;;8.20;;
16514;SDS011;8370;52.556;7.970;2022-09-13T09:23:18;10.73;;;6.72;;
16514;SDS011;8370;52.556;7.970;2022-09-13T09:25:45;10.63;;;6.50;;
16514;SDS011;8370;52.556;7.970;2022-09-13T09:28:12;9.90;;;5.57;;
16514;SDS011;8370;52.556;7.970;2022-09-13T09:33:33;8.48;;;5.13;;
16514;SDS011;8370;52.556;7.970;2022-09-13T09:36:22;9.98;;;5.30;;
16514;SDS011;8370;52.556;7.970;2022-09-13T09:38:58;7.57;;;6.47;;
16514;SDS011;8370;52.556;7.970;2022-09-13T09:41:28;7.20;;;5.05;;
16514;SDS011;8370;52.556;7.970;2022-09-13T09:46:29;5.63;;;3.42;;
16514;SDS011;8370;52.556;7.970;2022-09-13T09:49:44;6.95;;;2.45;;
16514;SDS011;8370;52.556;7.970;2022-09-13T09:55:22;2.60;;;1.70;;
16514;SDS011;8370;52.556;7.970;2022-09-13T10:00:26;2.63;;;2.15;;
16514;SDS011;8370;52.556;7.970;2022-09-13T10:02:57;4.00;;;2.15;;
16514;SDS011;8370;52.556;7.970;2022-09-13T10:05:25;4.38;;;2.50;;
16514;SDS011;8370;52.556;7.970;2022-09-13T10:08:01;4.57;;;2.92;;
16514;SDS011;8370;52.556;7.970;2022-09-13T10:10:38;4.43;;;3.33;;
16514;SDS011;8370;52.556;7.970;2022-09-13T10:13:11;5.07;;;2.77;;
16514;SDS011;8370;52.556;7.970;2022-09-13T10:15:50;4.00;;;2.30;;
16514;SDS011;8370;52.556;7.970;2022-09-13T10:18:19;5.32;;;2.75;;
16514;SDS011;8370;52.556;7.970;2022-09-13T10:21:05;5.03;;;2.53;;
16514;SDS011;8370;52.556;7.970;2022-09-13T10:23:44;4.78;;;2.05;;
16514;SDS011;8370;52.556;7.970;2022-09-13T10:26:20;3.58;;;2.42;;
16514;SDS011;8370;52.556;7.970;2022-09-13T10:31:34;7.38;;;2.25;;
16514;SDS011;8370;52.556;7.970;2022-09-13T10:39:20;5.05;;;1.45;;
16514;SDS011;8370;52.556;7.970;2022-09-13T10:41:51;1.90;;;1.00;;
16514;SDS011;8370;52.556;7.970;2022-09-13T10:44:53;4.43;;;1.40;;
16514;SDS011;8370;52.556;7.970;2022-09-13T10:47:21;3.95;;;1.02;;
16514;SDS011;8370;52.556;7.970;2022-09-13T10:49:57;2.90;;;0.93;;
16514;SDS011;8370;52.556;7.970;2022-09-13T10:52:41;3.58;;;1.15;;
16514;SDS011;8370;52.556;7.970;2022-09-13T10:57:48;1.83;;;1.08;;
16514;SDS011;8370;52.556;7.970;2022-09-13T11:00:15;4.30;;;1.10;;
16514;SDS011;8370;52.556;7.970;2022-09-13T11:11:31;2.90;;;0.95;;
16514;SDS011;8370;52.556;7.970;2022-09-13T11:27:57;3.15;;;1.15;;
16514;SDS011;8370;52.556;7.970;2022-09-13T11:30:26;2.92;;;0.98;;
16514;SDS011;8370;52.556;7.970;2022-09-13T11:33:06;0.90;;;0.57;;
16514;SDS011;8370;52.556;7.970;2022-09-13T11:35:51;5.22;;;1.70;;
16514;SDS011;8370;52.556;7.970;2022-09-13T11:38:35;3.92;;;0.82;;
16514;SDS011;8370;52.556;7.970;2022-09-13T11:41:07;2.03;;;0.70;;
16514;SDS011;8370;52.556;7.970;2022-09-13T11:44:23;1.30;;;0.57;;
16514;SDS011;8370;52.556;7.970;2022-09-13T11:49:47;1.95;;;0.50;;
16514;SDS011;8370;52.556;7.970;2022-09-13T11:55:23;1.88;;;0.60;;
16514;SDS011;8370;52.556;7.970;2022-09-13T11:58:19;3.22;;;0.50;;
16514;SDS011;8370;52.556;7.970;2022-09-13T12:00:54;3.88;;;0.50;;
16514;SDS011;8370;52.556;7.970;2022-09-13T12:03:33;2.72;;;0.52;;
16514;SDS011;8370;52.556;7.970;2022-09-13T12:06:14;1.90;;;0.52;;
16514;SDS011;8370;52.556;7.970;2022-09-13T12:08:46;1.58;;;0.55;;
16514;SDS011;8370;52.556;7.970;2022-09-13T12:11:17;1.88;;;0.68;;
16514;SDS011;8370;52.556;7.970;2022-09-13T12:13:58;1.67;;;0.50;;
16514;SDS011;8370;52.556;7.970;2022-09-13T12:16:31;1.60;;;0.50;;
16514;SDS011;8370;52.556;7.970;2022-09-13T12:19:01;1.65;;;0.40;;
16514;SDS011;8370;52.556;7.970;2022-09-13T12:21:36;2.67;;;0.60;;
16514;SDS011;8370;52.556;7.970;2022-09-13T12:24:28;3.20;;;0.68;;
16514;SDS011;8370;52.556;7.970;2022-09-13T12:27:03;1.58;;;0.50;;
16514;SDS011;8370;52.556;7.970;2022-09-13T12:29:47;2.40;;;0.57;;
16514;SDS011;8370;52.556;7.970;2022-09-13T12:32:16;1.77;;;0.47;;
16514;SDS011;8370;52.556;7.970;2022-09-13T12:34:45;1.98;;;0.50;;
16514;SDS011;8370;52.556;7.970;2022-09-13T12:52:42;2.42;;;0.50;;
16514;SDS011;8370;52.556;7.970;2022-09-13T12:55:35;1.45;;;0.50;;
16514;SDS011;8370;52.556;7.970;2022-09-13T13:01:20;3.63;;;0.70;;
16514;SDS011;8370;52.556;7.970;2022-09-13T13:03:50;1.20;;;0.60;;
16514;SDS011;8370;52.556;7.970;2022-09-13T13:06:40;1.45;;;0.50;;
16514;SDS011;8370;52.556;7.970;2022-09-13T13:11:57;2.25;;;0.60;;
16514;SDS011;8370;52.556;7.970;2022-09-13T13:14:25;4.82;;;0.52;;
16514;SDS011;8370;52.556;7.970;2022-09-13T13:16:53;2.35;;;0.60;;
16514;SDS011;8370;52.556;7.970;2022-09-13T13:19:32;1.63;;;0.50;;
16514;SDS011;8370;52.556;7.970;2022-09-13T13:27:54;2.92;;;0.50;;
16514;SDS011;8370;52.556;7.970;2022-09-13T13:30:40;1.23;;;0.60;;
16514;SDS011;8370;52.556;7.970;2022-09-13T13:33:17;3.22;;;0.55;;
16514;SDS011;8370;52.556;7.970;2022-09-13T13:35:49;2.08;;;0.40;;
16514;SDS011;8370;52.556;7.970;2022-09-13T13:41:03;0.73;;;0.50;;
16514;SDS011;8370;52.556;7.970;2022-09-13T13:43:52;1.85;;;0.40;;
16514;SDS011;8370;52.556;7.970;2022-09-13T13:48:46;3.63;;;0.63;;
16514;SDS011;8370;52.556;7.970;2022-09-13T13:53:44;2.38;;;0.55;;
16514;SDS011;8370;52.556;7.970;2022-09-13T13:56:18;4.43;;;0.43;;
16514;SDS011;8370;52.556;7.970;2022-09-13T13:59:02;1.95;;;0.50;;
16514;SDS011;8370;52.556;7.970;2022-09-13T14:01:35;1.30;;;0.40;;
16514;SDS011;8370;52.556;7.970;2022-09-13T14:06:52;5.45;;;0.55;;
16514;SDS011;8370;52.556;7.970;2022-09-13T14:12:14;2.28;;;0.30;;
16514;SDS011;8370;52.556;7.970;2022-09-13T14:15:03;1.27;;;0.40;;
16514;SDS011;8370;52.556;7.970;2022-09-13T14:20:15;1.13;;;0.40;;
16514;SDS011;8370;52.556;7.970;2022-09-13T14:22:42;0.55;;;0.30;;
16514;SDS011;8370;52.556;7.970;2022-09-13T14:25:17;1.33;;;0.50;;
16514;SDS011;8370;52.556;7.970;2022-09-13T14:27:48;1.67;;;0.40;;
16514;SDS011;8370;52.556;7.970;2022-09-13T14:30:18;1.83;;;0.60;;
16514;SDS011;8370;52.556;7.970;2022-09-13T14:32:46;3.30;;;0.40;;
16514;SDS011;8370;52.556;7.970;2022-09-13T14:35:30;2.28;;;0.47;;
16514;SDS011;8370;52.556;7.970;2022-09-13T14:38:08;2.10;;;0.40;;
16514;SDS011;8370;52.556;7.970;2022-09-13T14:40:35;2.25;;;0.50;;
16514;SDS011;8370;52.556;7.970;2022-09-13T14:43:23;4.05;;;0.70;;
16514;SDS011;8370;52.556;7.970;2022-09-13T14:45:56;1.00;;;0.50;;
16514;SDS011;8370;52.556;7.970;2022-09-13T14:48:35;2.40;;;0.47;;
16514;SDS011;8370;52.556;7.970;2022-09-13T14:51:04;2.53;;;0.43;;
16514;SDS011;8370;52.556;7.970;2022-09-13T14:53:37;1.35;;;0.50;;
16514;SDS011;8370;52.556;7.970;2022-09-13T14:56:07;2.72;;;0.40;;
16514;SDS011;8370;52.556;7.970;2022-09-13T14:58:47;2.63;;;0.43;;
16514;SDS011;8370;52.556;7.970;2022-09-13T15:01:17;3.83;;;0.60;;
16514;SDS011;8370;52.556;7.970;2022-09-13T15:03:46;2.25;;;0.50;;
16514;SDS011;8370;52.556;7.970;2022-09-13T15:06:23;3.55;;;0.47;;
16514;SDS011;8370;52.556;7.970;2022-09-13T15:08:51;2.78;;;0.60;;
16514;SDS011;8370;52.556;7.970;2022-09-13T15:11:34;4.63;;;0.50;;
16514;SDS011;8370;52.556;7.970;2022-09-13T15:14:21;2.30;;;0.47;;
16514;SDS011;8370;52.556;7.970;2022-09-13T15:19:40;2.40;;;0.50;;
16514;SDS011;8370;52.556;7.970;2022-09-13T15:24:50;2.95;;;0.70;;
16514;SDS011;8370;52.556;7.970;2022-09-13T15:27:28;3.13;;;1.02;;
16514;SDS011;8370;52.556;7.970;2022-09-13T15:29:56;2.85;;;0.90;;
16514;SDS011;8370;52.556;7.970;2022-09-13T15:32:34;1.70;;;0.60;;
16514;SDS011;8370;52.556;7.970;2022-09-13T15:35:15;3.90;;;0.40;;
16514;SDS011;8370;52.556;7.970;2022-09-13T15:38:54;2.35;;;0.50;;
16514;SDS011;8370;52.556;7.970;2022-09-13T15:40:46;3.15;;;0.60;;
16514;SDS011;8370;52.556;7.970;2022-09-13T15:43:22;3.58;;;0.70;;
16514;SDS011;8370;52.556;7.970;2022-09-13T15:45:47;2.17;;;0.40;;
16514;SDS011;8370;52.556;7.970;2022-09-13T15:48:21;2.85;;;0.47;;
16514;SDS011;8370;52.556;7.970;2022-09-13T15:51:03;0.60;;;0.50;;
16514;SDS011;8370;52.556;7.970;2022-09-13T15:53:39;5.05;;;0.55;;
16514;SDS011;8370;52.556;7.970;2022-09-13T15:56:07;3.17;;;0.52;;
16514;SDS011;8370;52.556;7.970;2022-09-13T15:58:36;3.53;;;0.35;;
16514;SDS011;8370;52.556;7.970;2022-09-13T16:01:02;1.80;;;0.68;;
16514;SDS011;8370;52.556;7.970;2022-09-13T16:03:28;3.30;;;0.45;;
16514;SDS011;8370;52.556;7.970;2022-09-13T16:05:54;1.30;;;0.50;;
16514;SDS011;8370;52.556;7.970;2022-09-13T16:08:20;2.88;;;0.80;;
16514;SDS011;8370;52.556;7.970;2022-09-13T16:10:47;2.95;;;0.52;;
16514;SDS011;8370;52.556;7.970;2022-09-13T16:13:13;2.65;;;0.50;;
16514;SDS011;8370;52.556;7.970;2022-09-13T16:15:38;2.50;;;0.50;;
16514;SDS011;8370;52.556;7.970;2022-09-13T16:18:05;3.67;;;0.63;;
16514;SDS011;8370;52.556;7.970;2022-09-13T16:20:30;1.00;;;0.45;;
16514;SDS011;8370;52.556;7.970;2022-09-13T16:22:56;1.67;;;0.60;;
16514;SDS011;8370;52.556;7.970;2022-09-13T16:25:21;4.65;;;0.70;;
16514;SDS011;8370;52.556;7.970;2022-09-13T16:27:47;4.13;;;0.90;;
16514;SDS011;8370;52.556;7.970;2022-09-13T16:30:14;3.38;;;0.88;;
16514;SDS011;8370;52.556;7.970;2022-09-13T16:32:41;1.35;;;0.40;;
16514;SDS011;8370;52.556;7.970;2022-09-13T16:35:07;4.50;;;0.73;;
16514;SDS011;8370;52.556;7.970;2022-09-13T16:37:34;3.53;;;0.52;;
16514;SDS011;8370;52.556;7.970;2022-09-13T16:39:59;2.55;;;0.50;;
16514;SDS011;8370;52.556;7.970;2022-09-13T16:42:25;1.42;;;0.50;;
16514;SDS011;8370;52.556;7.970;2022-09-13T16:44:51;1.30;;;0.47;;
16514;SDS011;8370;52.556;7.970;2022-09-13T16:47:16;4.65;;;0.77;;
16514;SDS011;8370;52.556;7.970;2022-09-13T16:49:42;1.73;;;0.40;;
16514;SDS011;8370;52.556;7.970;2022-09-13T16:52:08;4.05;;;0.60;;
16514;SDS011;8370;52.556;7.970;2022-09-13T16:54:34;2.03;;;0.55;;
16514;SDS011;8370;52.556;7.970;2022-09-13T16:57:01;1.98;;;0.60;;
16514;SDS011;8370;52.556;7.970;2022-09-13T16:59:28;4.57;;;0.50;;
16514;SDS011;8370;52.556;7.970;2022-09-13T17:01:54;3.90;;;0.75;;
16514;SDS011;8370;52.556;7.970;2022-09-13T17:04:19;4.35;;;1.20;;
16514;SDS011;8370;52.556;7.970;2022-09-13T17:06:45;2.05;;;0.47;;
16514;SDS011;8370;52.556;7.970;2022-09-13T17:09:11;7.18;;;0.80;;
16514;SDS011;8370;52.556;7.970;2022-09-13T17:11:37;3.95;;;0.70;;
16514;SDS011;8370;52.556;7.970;2022-09-13T17:14:05;2.45;;;0.70;;
16514;SDS011;8370;52.556;7.970;2022-09-13T17:16:43;2.05;;;0.40;;
16514;SDS011;8370;52.556;7.970;2022-09-13T17:19:15;2.42;;;0.80;;
16514;SDS011;8370;52.556;7.970;2022-09-13T17:21:43;4.03;;;0.50;;
16514;SDS011;8370;52.556;7.970;2022-09-13T17:24:09;4.88;;;0.63;;
16514;SDS011;8370;52.556;7.970;2022-09-13T17:26:35;2.97;;;0.77;;
16514;SDS011;8370;52.556;7.970;2022-09-13T17:29:00;3.55;;;0.75;;
16514;SDS011;8370;52.556;7.970;2022-09-13T17:31:26;3.63;;;0.75;;
16514;SDS011;8370;52.556;7.970;2022-09-13T17:33:51;4.50;;;0.77;;